Skip Navigation Links Skip Navigation Links

Current Weather

Boryspil, Kiev, Ukraine

For information only: do not use for flight planning or navigation.
Latest weather
Observation time Saturday, July 11, 2020 4:30 AM EEST
Local time Saturday, July 11, 2020 4:49 AM EEST
Flight conditions Visual Meteorological Conditions
Winds
Wind direction variable
Wind speed 2 mph
Visibility 6.2 mi.
Sky condition
Ceiling unlimited
Sky clear
Temperature 66°F
Dewpoint 57°F
Altimeter 30.09 in.Hg
Derived measurements
Relative humidity 73%
Density altitude 1045 ft.
Remarks
Ceiling and visibility OK.
No significant changes expected in the next two hours.
METAR UKKK 110130Z VRB01MPS CAVOK 19/14 Q1019 R08/70D NOSIG

Settings

Location code

InnerDrive.Weather 4.0.6770.0 Release CLR 4.0.30319.42000
Copyright ©2018 Inner Drive Technology. All rights reserved. Portions Copyright ©1986-2018 David Braverman.

Find weather

Site navigation


Skip Navigation Links

Place info

Page info

PayPal - The safer, easier way to pay online!

Return home.

Copyright ©2020 Inner Drive Technology. Purveyors of fine, hand-crafted computer software. Page printed 2020-07-11T01:49:19 UTC.